createdAt,value
2024-03-16T00:01:24.086Z,9.10
2024-03-16T00:03:51.013Z,9.20
2024-03-16T00:06:17.775Z,9.20
2024-03-16T00:08:44.761Z,9.20
2024-03-16T00:11:11.671Z,9.30
2024-03-16T00:13:38.448Z,9.20
2024-03-16T00:16:05.647Z,9.30
2024-03-16T00:18:33.376Z,9.30
2024-03-16T00:21:00.421Z,9.30
2024-03-16T00:23:27.205Z,9.30
2024-03-16T00:25:53.988Z,9.30
2024-03-16T00:28:20.745Z,9.30
2024-03-16T00:30:47.800Z,9.30
2024-03-16T00:33:14.682Z,9.30
2024-03-16T00:35:41.448Z,9.20
2024-03-16T00:38:08.227Z,9.20
2024-03-16T00:40:35.024Z,9.20
2024-03-16T00:43:01.914Z,9.30
2024-03-16T00:45:28.902Z,9.30
2024-03-16T00:47:57.270Z,9.30
2024-03-16T00:50:24.166Z,9.30
2024-03-16T00:52:50.947Z,9.40
2024-03-16T00:55:17.984Z,9.40
2024-03-16T00:57:44.806Z,9.40
2024-03-16T01:00:12.352Z,9.40
2024-03-16T01:02:40.552Z,9.40
2024-03-16T01:05:07.870Z,9.40
2024-03-16T01:07:34.643Z,9.40
2024-03-16T01:10:02.042Z,9.40
2024-03-16T01:12:29.511Z,9.40
2024-03-16T01:14:56.283Z,9.50
2024-03-16T01:17:23.140Z,9.50
2024-03-16T01:19:50.100Z,9.50
2024-03-16T01:22:16.923Z,9.50
2024-03-16T01:24:43.728Z,9.50
2024-03-16T01:27:10.642Z,9.50
2024-03-16T01:29:37.430Z,9.50
2024-03-16T01:32:06.484Z,9.50
2024-03-16T01:34:33.370Z,9.50
2024-03-16T01:37:00.236Z,9.50
2024-03-16T01:39:27.085Z,9.50
2024-03-16T01:41:53.944Z,9.60
2024-03-16T01:44:20.728Z,9.70
2024-03-16T01:46:48.445Z,9.80
2024-03-16T01:49:15.666Z,9.80
2024-03-16T01:51:42.635Z,9.80
2024-03-16T01:54:11.696Z,9.80
2024-03-16T01:56:38.676Z,9.80
2024-03-16T01:59:05.520Z,9.70
2024-03-16T02:01:32.724Z,9.70
2024-03-16T02:03:59.987Z,9.70
2024-03-16T02:06:29.275Z,9.70
2024-03-16T02:08:56.143Z,9.60
2024-03-16T02:11:23.352Z,9.60
2024-03-16T02:13:50.658Z,9.60
2024-03-16T02:16:17.460Z,9.60
2024-03-16T02:18:44.419Z,9.60
2024-03-16T02:21:11.862Z,9.60
2024-03-16T02:23:40.685Z,9.60
2024-03-16T02:26:08.754Z,9.60
2024-03-16T02:28:35.668Z,9.50
2024-03-16T02:31:02.942Z,9.50
2024-03-16T02:33:29.958Z,9.50
2024-03-16T02:35:57.286Z,9.50
2024-03-16T02:38:24.303Z,9.60
2024-03-16T02:40:51.067Z,9.60
2024-03-16T02:43:17.837Z,9.60
2024-03-16T02:45:44.779Z,9.60
2024-03-16T02:48:12.541Z,9.60
2024-03-16T02:50:39.421Z,9.50
2024-03-16T02:53:06.217Z,9.50
2024-03-16T02:55:33.096Z,9.50
2024-03-16T02:57:59.949Z,9.50
2024-03-16T03:00:28.330Z,9.50
2024-03-16T03:02:55.340Z,9.40
2024-03-16T03:05:23.850Z,9.40
2024-03-16T03:07:50.751Z,9.40
2024-03-16T03:10:18.041Z,9.40
2024-03-16T03:12:46.145Z,9.40
2024-03-16T03:15:13.113Z,9.40
2024-03-16T03:17:40.586Z,9.40
2024-03-16T03:20:10.219Z,9.40
2024-03-16T03:22:37.434Z,9.30
2024-03-16T03:25:04.876Z,9.30
2024-03-16T03:27:32.289Z,9.30
2024-03-16T03:29:59.192Z,9.30
2024-03-16T03:32:26.039Z,9.30
2024-03-16T03:34:52.853Z,9.30
2024-03-16T03:37:21.988Z,9.30
2024-03-16T03:39:53.207Z,9.30
2024-03-16T03:42:20.558Z,9.30
2024-03-16T03:45:07.584Z,9.30
2024-03-16T03:47:51.117Z,9.30
2024-03-16T03:50:27.790Z,9.30
2024-03-16T03:53:00.384Z,9.30
2024-03-16T03:55:27.672Z,9.30
2024-03-16T03:57:55.802Z,9.30
2024-03-16T04:00:23.105Z,9.30
2024-03-16T04:02:50.079Z,9.30
2024-03-16T04:05:16.839Z,9.30
2024-03-16T04:07:44.844Z,9.30
2024-03-16T04:10:11.738Z,9.30
2024-03-16T04:12:38.590Z,9.20
2024-03-16T04:15:05.838Z,9.10
2024-03-16T04:17:32.691Z,9.10
2024-03-16T04:19:59.469Z,9.10
2024-03-16T04:22:26.252Z,9.10
2024-03-16T04:24:53.100Z,9.10
2024-03-16T04:27:20.062Z,9.10
2024-03-16T04:29:46.877Z,9.10
2024-03-16T04:32:13.703Z,9.10
2024-03-16T04:34:40.475Z,9.20
2024-03-16T04:37:07.354Z,9.10
2024-03-16T04:39:34.190Z,9.10
2024-03-16T04:42:00.986Z,9.10
2024-03-16T04:44:27.730Z,9.10
2024-03-16T04:46:55.819Z,9.00
2024-03-16T04:49:22.740Z,9.00
2024-03-16T04:51:49.559Z,9.00
2024-03-16T04:54:16.378Z,8.90
2024-03-16T04:56:43.396Z,8.90
2024-03-16T04:59:12.340Z,8.90
2024-03-16T05:01:39.427Z,9.00
2024-03-16T05:04:06.443Z,8.90
2024-03-16T05:06:34.791Z,8.90
2024-03-16T05:09:11.087Z,8.90
2024-03-16T05:11:38.490Z,8.90
2024-03-16T05:14:07.342Z,8.90
2024-03-16T05:16:38.497Z,8.90
2024-03-16T05:19:05.937Z,8.90
2024-03-16T05:21:33.092Z,8.90
2024-03-16T05:24:03.037Z,8.80
2024-03-16T05:26:31.933Z,8.80
2024-03-16T05:28:59.136Z,8.70
2024-03-16T05:31:27.101Z,8.80
2024-03-16T05:33:54.024Z,8.80
2024-03-16T05:36:20.929Z,8.80
2024-03-16T05:38:47.662Z,8.80
2024-03-16T05:41:14.831Z,8.80
2024-03-16T05:43:44.404Z,8.70
2024-03-16T05:46:14.423Z,8.70
2024-03-16T05:48:41.885Z,8.80
2024-03-16T05:51:08.687Z,8.80
2024-03-16T05:53:35.528Z,8.80
2024-03-16T05:56:02.323Z,8.80
2024-03-16T05:58:32.792Z,8.90
2024-03-16T06:01:00.303Z,8.90
2024-03-16T06:03:28.128Z,8.90
2024-03-16T06:05:55.210Z,8.90
2024-03-16T06:08:22.026Z,8.90
2024-03-16T06:10:49.195Z,9.00
2024-03-16T06:13:16.414Z,8.90
2024-03-16T06:15:43.383Z,8.90
2024-03-16T06:18:10.359Z,9.00
2024-03-16T06:20:37.425Z,9.00
2024-03-16T06:23:04.639Z,9.00
2024-03-16T06:25:37.051Z,9.10
2024-03-16T06:28:08.133Z,9.10
2024-03-16T06:30:36.780Z,9.10
2024-03-16T06:33:10.424Z,9.10
2024-03-16T06:35:44.945Z,9.10
2024-03-16T06:38:11.690Z,9.20
2024-03-16T06:40:38.464Z,9.20
2024-03-16T06:43:05.360Z,9.20
2024-03-16T06:45:32.779Z,9.20
2024-03-16T06:47:59.700Z,9.20
2024-03-16T06:50:26.574Z,9.30
2024-03-16T06:52:53.347Z,9.30
2024-03-16T06:55:20.729Z,9.30
2024-03-16T06:57:47.740Z,9.40
2024-03-16T07:00:15.504Z,9.50
2024-03-16T07:02:42.486Z,9.40
2024-03-16T07:05:10.593Z,9.40
2024-03-16T07:07:37.477Z,9.50
2024-03-16T07:10:07.596Z,9.40
2024-03-16T07:12:34.871Z,9.40
2024-03-16T07:15:01.723Z,9.40
2024-03-16T07:17:32.427Z,9.40
2024-03-16T07:19:59.274Z,9.40
2024-03-16T07:22:26.035Z,9.40
2024-03-16T07:24:52.864Z,9.40
2024-03-16T07:27:19.680Z,9.40
2024-03-16T07:29:46.500Z,9.30
2024-03-16T07:32:13.461Z,9.30
2024-03-16T07:34:41.452Z,9.40
2024-03-16T07:37:08.334Z,9.30
2024-03-16T07:39:35.256Z,9.30
2024-03-16T07:42:02.090Z,9.30
2024-03-16T07:44:30.336Z,9.30
2024-03-16T07:46:57.156Z,9.20
2024-03-16T07:49:23.957Z,9.10
2024-03-16T07:51:50.799Z,9.10
2024-03-16T07:54:17.610Z,9.10
2024-03-16T07:56:44.925Z,9.20
2024-03-16T07:59:12.426Z,9.30
2024-03-16T08:01:39.334Z,9.30
2024-03-16T08:04:06.621Z,9.40
2024-03-16T08:06:33.504Z,9.40
2024-03-16T08:09:00.272Z,9.50
2024-03-16T08:11:29.222Z,9.60
2024-03-16T08:13:56.046Z,9.70
2024-03-16T08:16:22.862Z,9.80
2024-03-16T08:18:50.167Z,9.90
2024-03-16T08:21:17.419Z,9.90
2024-03-16T08:23:45.141Z,10.10
2024-03-16T08:26:13.694Z,10.10
2024-03-16T08:28:41.034Z,10.20
2024-03-16T08:31:09.397Z,10.30
2024-03-16T08:33:36.371Z,10.40
2024-03-16T08:36:06.904Z,10.50
2024-03-16T08:38:34.582Z,10.60
2024-03-16T08:41:03.176Z,10.80
2024-03-16T08:43:31.743Z,11.20
2024-03-16T08:46:02.819Z,11.20
2024-03-16T08:48:29.938Z,11.10
2024-03-16T08:51:00.270Z,11.20
2024-03-16T08:53:27.449Z,11.00
2024-03-16T08:55:59.372Z,11.00
2024-03-16T08:58:26.640Z,11.10
2024-03-16T09:00:56.900Z,11.20
2024-03-16T09:03:23.881Z,11.10
2024-03-16T09:05:50.633Z,11.20
2024-03-16T09:08:17.460Z,11.30
2024-03-16T09:10:45.688Z,11.40
2024-03-16T09:13:12.763Z,11.40
2024-03-16T09:15:40.290Z,11.40
2024-03-16T09:18:07.139Z,11.30
2024-03-16T09:20:34.950Z,11.30
2024-03-16T09:23:02.207Z,11.20
2024-03-16T09:25:29.264Z,11.10
2024-03-16T09:27:56.047Z,11.10
2024-03-16T09:30:23.218Z,11.10
2024-03-16T09:32:50.277Z,11.10
2024-03-16T09:35:17.126Z,11.10
2024-03-16T09:37:43.952Z,11.20
2024-03-16T09:40:12.334Z,11.20
2024-03-16T09:42:39.766Z,11.30
